createdAt,value
2022-12-23T00:00:57.498Z,2.33
2022-12-23T00:03:25.857Z,1.92
2022-12-23T00:05:53.723Z,1.92
2022-12-23T00:08:22.349Z,1.85
2022-12-23T00:10:51.312Z,1.58
2022-12-23T00:13:37.461Z,1.92
2022-12-23T00:16:12.619Z,1.88
2022-12-23T00:18:40.501Z,1.77
2022-12-23T00:21:11.538Z,1.90
2022-12-23T00:23:42.442Z,2.22
2022-12-23T00:26:25.299Z,1.83
2022-12-23T00:28:52.935Z,1.73
2022-12-23T00:31:21.308Z,1.95
2022-12-23T00:33:51.144Z,1.20
2022-12-23T00:36:22.713Z,1.40
2022-12-23T00:39:09.548Z,1.27
2022-12-23T00:41:55.894Z,1.20
2022-12-23T00:44:23.945Z,1.55
2022-12-23T00:46:51.499Z,1.85
2022-12-23T00:49:38.750Z,2.05
2022-12-23T00:52:08.386Z,1.38
2022-12-23T00:54:35.929Z,1.35
2022-12-23T00:57:03.468Z,1.77
2022-12-23T00:59:30.962Z,1.40
2022-12-23T01:02:17.242Z,1.58
2022-12-23T01:05:03.369Z,0.95
2022-12-23T01:07:30.819Z,1.50
2022-12-23T01:09:58.333Z,1.77
2022-12-23T01:12:26.053Z,1.98
2022-12-23T01:14:53.651Z,1.30
2022-12-23T01:17:21.219Z,1.35
2022-12-23T01:19:48.877Z,1.00
2022-12-23T01:22:16.244Z,1.13
2022-12-23T01:24:43.608Z,0.90
2022-12-23T01:27:11.053Z,1.13
2022-12-23T01:29:38.444Z,1.33
2022-12-23T01:32:05.980Z,1.77
2022-12-23T01:34:37.076Z,1.33
2022-12-23T01:37:05.329Z,1.30
2022-12-23T01:39:32.754Z,1.55
2022-12-23T01:42:18.831Z,1.42
2022-12-23T01:44:51.660Z,1.42
2022-12-23T01:47:26.862Z,1.52
2022-12-23T01:50:06.102Z,1.52
2022-12-23T01:52:40.697Z,1.95
2022-12-23T01:55:08.514Z,0.95
2022-12-23T01:57:38.574Z,1.85
2022-12-23T02:00:27.220Z,1.00
2022-12-23T02:03:13.374Z,1.00
2022-12-23T02:05:43.538Z,1.42
2022-12-23T02:08:31.089Z,1.17
2022-12-23T02:11:01.352Z,1.10
2022-12-23T02:14:00.968Z,1.02
2022-12-23T02:16:33.188Z,1.33
2022-12-23T02:19:28.613Z,1.10
2022-12-23T02:22:13.636Z,1.88
2022-12-23T02:25:18.345Z,1.40
2022-12-23T02:28:19.549Z,1.77
2022-12-23T02:30:54.131Z,1.05
2022-12-23T02:33:39.008Z,1.35
2022-12-23T02:36:32.229Z,1.20
2022-12-23T02:39:09.088Z,1.42
2022-12-23T02:41:51.211Z,1.00
2022-12-23T02:44:44.354Z,1.10
2022-12-23T02:47:22.746Z,1.08
2022-12-23T02:49:54.332Z,1.38
2022-12-23T02:52:27.167Z,1.33
2022-12-23T02:55:00.451Z,1.08
2022-12-23T02:57:34.714Z,1.05
2022-12-23T03:00:03.384Z,1.40
2022-12-23T03:02:34.289Z,1.10
2022-12-23T03:05:02.165Z,1.20
2022-12-23T03:07:38.960Z,1.35
2022-12-23T03:10:16.390Z,1.08
2022-12-23T03:12:49.371Z,2.35
2022-12-23T03:15:37.474Z,1.35
2022-12-23T03:18:15.553Z,1.30
2022-12-23T03:21:08.368Z,1.10
2022-12-23T03:23:55.493Z,1.30
2022-12-23T03:26:40.038Z,1.10
2022-12-23T03:29:19.477Z,1.40
2022-12-23T03:31:47.883Z,2.28
2022-12-23T03:34:19.373Z,1.30
2022-12-23T03:36:53.087Z,1.33
2022-12-23T03:39:25.939Z,1.27
2022-12-23T03:42:07.241Z,1.48
2022-12-23T03:44:48.016Z,1.35
2022-12-23T03:47:33.100Z,1.50
2022-12-23T03:50:07.424Z,1.60
2022-12-23T03:52:40.036Z,1.70
2022-12-23T03:55:14.754Z,2.00
2022-12-23T03:57:49.216Z,1.45
2022-12-23T04:00:16.645Z,1.02
2022-12-23T04:03:04.868Z,1.48
2022-12-23T04:05:39.845Z,1.42
2022-12-23T04:08:17.600Z,1.55
2022-12-23T04:10:45.858Z,1.40
2022-12-23T04:13:13.406Z,1.05
2022-12-23T04:15:42.304Z,1.38
2022-12-23T04:18:11.171Z,1.35
2022-12-23T04:20:38.751Z,1.15
2022-12-23T04:23:06.137Z,1.50
2022-12-23T04:25:33.635Z,1.70
2022-12-23T04:28:01.984Z,1.63
2022-12-23T04:30:34.011Z,1.55
2022-12-23T04:33:02.316Z,1.15
2022-12-23T04:35:30.663Z,1.70
2022-12-23T04:37:58.292Z,1.83
2022-12-23T04:40:25.746Z,1.70
2022-12-23T04:42:53.204Z,1.40
2022-12-23T04:45:20.429Z,1.20
2022-12-23T04:47:47.917Z,1.92
2022-12-23T04:50:16.441Z,1.80
2022-12-23T04:52:44.365Z,1.50
2022-12-23T04:55:11.802Z,2.78
2022-12-23T04:57:39.917Z,1.30
2022-12-23T05:00:08.189Z,1.25
2022-12-23T05:02:35.708Z,1.70
2022-12-23T05:05:03.613Z,1.75
2022-12-23T05:07:31.105Z,1.55
2022-12-23T05:10:02.052Z,1.98
2022-12-23T05:12:30.818Z,1.40
2022-12-23T05:14:58.507Z,1.38
2022-12-23T05:17:25.851Z,2.22
2022-12-23T05:19:53.079Z,1.77
2022-12-23T05:22:20.645Z,1.70
2022-12-23T05:24:47.877Z,1.90
2022-12-23T05:27:15.303Z,1.60
2022-12-23T05:29:42.667Z,1.85
2022-12-23T05:32:10.252Z,1.63
2022-12-23T05:34:37.499Z,1.73
2022-12-23T05:37:04.897Z,1.60
2022-12-23T05:39:32.152Z,1.38
2022-12-23T05:41:59.744Z,1.65
2022-12-23T05:44:26.946Z,1.20
2022-12-23T05:46:54.328Z,1.30
2022-12-23T05:49:22.504Z,1.20
2022-12-23T05:51:49.949Z,1.10
2022-12-23T05:54:17.363Z,1.55
2022-12-23T05:56:44.742Z,1.20
2022-12-23T05:59:11.999Z,1.40
2022-12-23T06:01:39.477Z,1.27
2022-12-23T06:04:06.995Z,1.38
2022-12-23T06:06:34.479Z,1.50
2022-12-23T06:09:02.156Z,1.45
2022-12-23T06:11:29.580Z,1.25
2022-12-23T06:13:56.881Z,1.70
2022-12-23T06:16:24.265Z,1.63
2022-12-23T06:18:57.630Z,1.67
2022-12-23T06:21:28.245Z,1.77
2022-12-23T06:23:55.731Z,1.60
2022-12-23T06:26:23.110Z,1.60
2022-12-23T06:28:50.518Z,1.40
2022-12-23T06:31:18.253Z,2.03
2022-12-23T06:33:45.556Z,1.55
2022-12-23T06:36:12.900Z,2.05
2022-12-23T06:38:40.547Z,1.77
2022-12-23T06:41:08.125Z,1.60
2022-12-23T06:43:35.516Z,1.58
2022-12-23T06:46:03.129Z,1.50
2022-12-23T06:48:30.757Z,1.60
2022-12-23T06:50:58.010Z,1.42
2022-12-23T06:53:25.418Z,1.50
2022-12-23T06:56:01.997Z,1.73
2022-12-23T06:58:29.660Z,1.42
2022-12-23T07:00:57.162Z,2.20
2022-12-23T07:03:24.668Z,1.75
2022-12-23T07:05:52.611Z,2.42
2022-12-23T07:08:20.326Z,2.13
2022-12-23T07:10:47.646Z,1.35
2022-12-23T07:13:15.235Z,1.63
2022-12-23T07:15:42.609Z,1.70
2022-12-23T07:18:10.145Z,1.45
2022-12-23T07:20:37.557Z,1.55
2022-12-23T07:23:05.216Z,1.35
2022-12-23T07:25:32.607Z,1.45
2022-12-23T07:28:00.096Z,1.10
2022-12-23T07:30:28.665Z,1.17
2022-12-23T07:32:56.130Z,1.30
2022-12-23T07:35:23.689Z,1.20
2022-12-23T07:37:55.670Z,1.25
2022-12-23T07:40:24.358Z,1.55
2022-12-23T07:42:55.912Z,1.05
2022-12-23T07:45:23.912Z,1.20
2022-12-23T07:47:55.614Z,1.10
2022-12-23T07:50:23.206Z,1.00
2022-12-23T07:52:52.149Z,1.13
2022-12-23T07:55:20.224Z,1.00
2022-12-23T07:57:49.490Z,1.33
2022-12-23T08:00:18.389Z,0.98
2022-12-23T08:02:46.467Z,1.10
2022-12-23T08:05:14.549Z,1.00
2022-12-23T08:07:42.187Z,0.68
2022-12-23T08:10:10.010Z,1.33
2022-12-23T08:12:37.456Z,0.75
2022-12-23T08:15:05.454Z,0.93
2022-12-23T08:17:32.803Z,0.95
2022-12-23T08:20:00.196Z,0.70
2022-12-23T08:22:27.583Z,1.00
2022-12-23T08:24:55.025Z,1.00
2022-12-23T08:27:22.516Z,0.88
2022-12-23T08:29:49.875Z,0.88
2022-12-23T08:32:17.222Z,0.90
2022-12-23T08:34:44.824Z,0.88
2022-12-23T08:37:12.537Z,0.85
2022-12-23T08:39:39.991Z,1.42
2022-12-23T08:42:07.640Z,1.63
2022-12-23T08:44:35.104Z,1.17
2022-12-23T08:47:02.593Z,1.05
2022-12-23T08:49:30.170Z,1.50
2022-12-23T08:51:57.634Z,1.52
2022-12-23T08:54:25.173Z,1.00
2022-12-23T08:56:52.626Z,1.13
2022-12-23T08:59:20.147Z,0.80
2022-12-23T09:01:48.384Z,0.90
2022-12-23T09:04:16.078Z,0.85
2022-12-23T09:06:45.446Z,0.85
2022-12-23T09:09:14.459Z,1.08
2022-12-23T09:11:42.239Z,1.17
2022-12-23T09:14:11.587Z,1.15
2022-12-23T09:16:39.468Z,1.00
2022-12-23T09:19:07.673Z,0.80
2022-12-23T09:21:35.463Z,0.70
2022-12-23T09:24:02.800Z,0.70
2022-12-23T09:26:31.114Z,0.70
2022-12-23T09:28:58.950Z,0.70
2022-12-23T09:31:34.071Z,1.63
2022-12-23T09:34:04.399Z,1.10
2022-12-23T09:36:31.978Z,0.90
2022-12-23T09:38:59.786Z,1.33
2022-12-23T09:41:55.982Z,0.93
2022-12-23T09:44:35.452Z,4.85
2022-12-23T09:47:07.897Z,8.88
2022-12-23T09:49:40.337Z,4.88
2022-12-23T09:52:17.036Z,1.50
2022-12-23T09:54:52.374Z,1.05
2022-12-23T09:57:48.963Z,0.98
2022-12-23T10:00:21.715Z,0.80
2022-12-23T10:03:04.077Z,0.90
2022-12-23T10:05:46.983Z,0.90
2022-12-23T10:08:34.448Z,0.98
2022-12-23T10:11:09.955Z,0.85
2022-12-23T10:13:44.794Z,0.85
2022-12-23T10:16:23.183Z,1.10
2022-12-23T10:18:58.954Z,1.20
2022-12-23T10:21:52.510Z,0.90
2022-12-23T10:24:33.074Z,1.10
2022-12-23T10:27:12.864Z,0.68
2022-12-23T10:29:42.337Z,1.05
2022-12-23T10:32:20.861Z,1.10
2022-12-23T10:34:51.049Z,1.30
2022-12-23T10:37:39.691Z,1.33
2022-12-23T10:40:33.009Z,0.90
2022-12-23T10:43:30.790Z,0.95
2022-12-23T10:46:01.156Z,0.63
2022-12-23T10:48:59.219Z,0.85
2022-12-23T10:51:35.279Z,0.80
2022-12-23T10:54:08.602Z,0.63
2022-12-23T10:56:36.107Z,1.10
2022-12-23T10:59:05.592Z,0.90
2022-12-23T11:01:34.434Z,3.42
2022-12-23T11:04:02.420Z,3.83
2022-12-23T11:06:37.049Z,1.92
2022-12-23T11:09:16.026Z,0.75
2022-12-23T11:12:04.960Z,0.88
2022-12-23T11:14:40.266Z,1.13
2022-12-23T11:17:24.289Z,0.90
2022-12-23T11:20:20.060Z,0.88
2022-12-23T11:22:55.897Z,0.77
2022-12-23T11:25:29.727Z,0.90
2022-12-23T11:28:02.286Z,1.10
2022-12-23T11:30:32.075Z,0.90
2022-12-23T11:32:59.731Z,1.15
2022-12-23T11:35:37.482Z,1.13
2022-12-23T11:38:12.242Z,1.00
2022-12-23T11:40:40.290Z,1.02
2022-12-23T11:43:15.832Z,0.77
2022-12-23T11:45:43.275Z,0.80
2022-12-23T11:48:29.703Z,0.70
2022-12-23T11:51:02.222Z,0.93
2022-12-23T11:53:30.078Z,0.80
2022-12-23T11:56:04.749Z,0.95
2022-12-23T11:58:48.704Z,0.75
2022-12-23T12:01:20.126Z,2.30
2022-12-23T12:03:53.879Z,1.67
2022-12-23T12:06:22.530Z,1.08
2022-12-23T12:08:52.933Z,1.10
2022-12-23T12:11:48.244Z,1.08
2022-12-23T12:14:29.798Z,1.00
2022-12-23T12:17:06.107Z,0.57
2022-12-23T12:19:45.412Z,0.68
2022-12-23T12:22:22.224Z,0.88
2022-12-23T12:24:54.609Z,0.80
2022-12-23T12:27:33.559Z,0.60
2022-12-23T12:30:08.731Z,0.70
2022-12-23T12:32:53.537Z,0.40
2022-12-23T12:35:53.987Z,0.90
2022-12-23T12:38:30.085Z,1.23
2022-12-23T12:41:38.341Z,0.90
2022-12-23T12:44:20.932Z,0.73
2022-12-23T12:46:53.929Z,0.70
2022-12-23T12:49:40.088Z,0.73
2022-12-23T12:52:19.141Z,0.73
2022-12-23T12:55:07.612Z,0.88
2022-12-23T12:57:36.520Z,0.63
2022-12-23T13:00:06.920Z,0.70
2022-12-23T13:02:53.143Z,0.80
2022-12-23T13:05:32.675Z,0.63
2022-12-23T13:08:18.618Z,0.77
2022-12-23T13:11:05.555Z,1.00
2022-12-23T13:13:43.879Z,1.00
2022-12-23T13:16:31.197Z,0.70
2022-12-23T13:19:33.997Z,0.95
2022-12-23T13:22:09.901Z,4.97
2022-12-23T13:25:05.562Z,5.15
2022-12-23T13:27:49.603Z,1.80
2022-12-23T13:30:21.281Z,1.20
2022-12-23T13:33:07.200Z,0.93
2022-12-23T13:36:07.449Z,1.30
2022-12-23T13:39:00.305Z,1.40
2022-12-23T13:41:39.504Z,1.27
2022-12-23T13:44:10.688Z,1.58
2022-12-23T13:46:56.970Z,1.17
2022-12-23T13:49:51.494Z,0.90
2022-12-23T13:52:44.040Z,1.00
2022-12-23T13:55:43.981Z,1.25
2022-12-23T13:58:18.553Z,1.45
2022-12-23T14:00:46.379Z,1.75
2022-12-23T14:03:24.672Z,1.70
2022-12-23T14:05:53.304Z,1.90
2022-12-23T14:08:22.770Z,1.40
2022-12-23T14:11:00.903Z,1.73
2022-12-23T14:13:41.381Z,2.15
2022-12-23T14:16:36.001Z,1.63
2022-12-23T14:19:20.238Z,1.42
2022-12-23T14:22:18.066Z,1.52
2022-12-23T14:25:09.610Z,1.27
2022-12-23T14:28:16.003Z,1.30
2022-12-23T14:30:47.097Z,1.50
2022-12-23T14:33:23.897Z,1.35
2022-12-23T14:35:53.560Z,5.28
2022-12-23T14:38:32.426Z,8.75
2022-12-23T14:41:18.747Z,2.70
2022-12-23T14:43:46.180Z,2.30
2022-12-23T14:46:36.171Z,1.75
2022-12-23T14:52:59.407Z,1.98
2022-12-23T14:55:30.963Z,1.83
2022-12-23T14:58:10.775Z,1.58
2022-12-23T15:00:52.786Z,1.95
2022-12-23T15:03:20.818Z,1.45
2022-12-23T15:05:49.042Z,1.52
2022-12-23T15:08:30.835Z,1.58
2022-12-23T15:10:59.575Z,1.38
2022-12-23T15:13:29.821Z,1.63
2022-12-23T15:16:01.395Z,1.90
2022-12-23T15:18:29.683Z,1.77
2022-12-23T15:21:10.228Z,1.60
2022-12-23T15:23:37.602Z,1.70
2022-12-23T15:26:05.433Z,2.10
2022-12-23T15:28:38.903Z,1.70
2022-12-23T15:31:15.140Z,1.60
2022-12-23T15:34:04.055Z,1.63
2022-12-23T15:36:36.127Z,2.20
2022-12-23T15:39:19.503Z,2.15
2022-12-23T15:41:48.588Z,1.92
2022-12-23T15:44:20.471Z,2.08
2022-12-23T15:46:50.360Z,1.98
2022-12-23T15:49:21.338Z,2.30
2022-12-23T15:52:16.572Z,1.90
2022-12-23T15:54:53.164Z,1.60
2022-12-23T15:57:23.374Z,1.42
2022-12-23T15:59:51.093Z,1.88
2022-12-23T16:05:29.522Z,1.70
2022-12-23T16:08:10.675Z,1.90
2022-12-23T16:10:39.437Z,1.80
2022-12-23T16:13:18.397Z,2.28
2022-12-23T16:15:47.038Z,2.72
2022-12-23T16:18:32.584Z,4.18
2022-12-23T16:21:05.024Z,2.08
2022-12-23T16:23:36.132Z,1.73
2022-12-23T16:26:04.424Z,1.10
2022-12-23T16:28:50.337Z,1.80
2022-12-23T16:31:20.035Z,1.15
2022-12-23T16:33:47.429Z,1.27
2022-12-23T16:36:23.615Z,1.73
2022-12-23T16:38:52.696Z,1.30
2022-12-23T16:41:20.888Z,1.33
2022-12-23T16:43:52.338Z,1.45
2022-12-23T16:46:23.556Z,2.00
2022-12-23T16:48:58.662Z,2.10
2022-12-23T16:51:27.937Z,2.03
2022-12-23T16:53:56.904Z,2.50
2022-12-23T16:56:28.568Z,2.42
2022-12-23T16:58:55.984Z,2.30
2022-12-23T17:01:27.150Z,2.13
2022-12-23T17:03:56.044Z,2.50
2022-12-23T17:06:24.237Z,3.03
2022-12-23T17:08:53.300Z,2.55
2022-12-23T17:11:35.963Z,2.78
2022-12-23T17:14:06.882Z,2.85
2022-12-23T17:16:37.939Z,3.53
2022-12-23T17:19:05.759Z,2.88
2022-12-23T17:21:36.728Z,2.40
2022-12-23T17:24:17.118Z,2.17
2022-12-23T17:26:44.794Z,2.47
2022-12-23T17:29:12.883Z,2.83
2022-12-23T17:31:41.973Z,4.20
2022-12-23T17:34:15.966Z,2.90
2022-12-23T17:36:49.529Z,1.85
2022-12-23T17:39:17.784Z,1.40
2022-12-23T17:41:45.940Z,2.17
2022-12-23T17:44:14.860Z,1.60
2022-12-23T17:46:42.874Z,1.52
2022-12-23T17:49:10.093Z,1.80
2022-12-23T17:51:39.551Z,2.05
2022-12-23T17:54:07.127Z,1.58
2022-12-23T17:56:34.588Z,1.27
2022-12-23T17:59:02.024Z,1.20
2022-12-23T18:01:31.615Z,1.20
2022-12-23T18:04:00.092Z,1.38
2022-12-23T18:06:28.923Z,1.00
2022-12-23T18:08:59.561Z,1.23
2022-12-23T18:11:41.838Z,1.40
2022-12-23T18:14:19.598Z,1.35
2022-12-23T18:16:46.997Z,1.35
2022-12-23T18:19:19.760Z,1.75
2022-12-23T18:21:47.982Z,1.30
2022-12-23T18:24:15.466Z,1.17
2022-12-23T18:26:43.020Z,1.20
2022-12-23T18:29:10.358Z,1.23
2022-12-23T18:31:50.539Z,0.63
2022-12-23T18:34:19.640Z,0.80
2022-12-23T18:36:48.302Z,1.35
2022-12-23T18:39:16.267Z,1.50
2022-12-23T18:41:43.625Z,1.35
2022-12-23T18:44:18.407Z,1.63
2022-12-23T18:46:46.094Z,1.30
2022-12-23T18:49:14.020Z,1.42
2022-12-23T18:51:41.429Z,1.35
2022-12-23T18:54:16.693Z,1.42
2022-12-23T18:56:44.362Z,1.65
2022-12-23T18:59:27.490Z,1.50
2022-12-23T19:01:58.309Z,1.90
2022-12-23T19:04:29.013Z,1.70
2022-12-23T19:06:57.229Z,1.75
2022-12-23T19:09:25.275Z,1.90
2022-12-23T19:11:54.017Z,1.70
2022-12-23T19:14:21.764Z,1.42
2022-12-23T19:16:51.943Z,1.63
2022-12-23T19:19:21.123Z,1.50
2022-12-23T19:21:48.608Z,1.55
2022-12-23T19:24:16.034Z,1.70
2022-12-23T19:26:43.442Z,1.20
2022-12-23T19:29:10.936Z,1.10
2022-12-23T19:31:38.540Z,1.00
2022-12-23T19:34:09.729Z,0.73
2022-12-23T19:36:42.122Z,1.20
2022-12-23T19:39:16.138Z,1.00
2022-12-23T19:41:44.640Z,0.90
2022-12-23T19:44:11.895Z,0.90
2022-12-23T19:46:39.307Z,0.80
2022-12-23T19:49:06.641Z,0.88
2022-12-23T19:51:34.062Z,0.90
2022-12-23T19:54:03.487Z,1.25
2022-12-23T19:56:32.445Z,0.90
2022-12-23T19:58:59.775Z,0.60
2022-12-23T20:01:27.545Z,1.08
2022-12-23T20:03:56.323Z,0.95
2022-12-23T20:06:26.920Z,0.65
2022-12-23T20:08:59.975Z,0.93
2022-12-23T20:11:30.458Z,0.65
2022-12-23T20:13:59.653Z,0.75
2022-12-23T20:16:27.924Z,0.88
2022-12-23T20:18:56.344Z,0.57
2022-12-23T20:21:23.732Z,0.57
2022-12-23T20:23:51.555Z,0.50
2022-12-23T20:26:19.828Z,0.65
2022-12-23T20:28:47.214Z,0.80
2022-12-23T20:31:21.139Z,0.80
2022-12-23T20:33:50.317Z,0.68
2022-12-23T20:36:22.806Z,1.10
2022-12-23T20:38:51.208Z,1.08
2022-12-23T20:41:21.202Z,0.65
2022-12-23T20:44:23.463Z,0.88
2022-12-23T20:46:36.677Z,1.60
2022-12-23T20:49:04.154Z,0.63
2022-12-23T20:51:31.661Z,0.98
2022-12-23T20:53:59.913Z,1.15
2022-12-23T20:56:29.140Z,0.85
2022-12-23T20:59:01.389Z,1.27
2022-12-23T21:01:35.312Z,1.02
2022-12-23T21:04:05.752Z,0.77
2022-12-23T21:06:34.083Z,0.63
2022-12-23T21:09:04.852Z,0.60
2022-12-23T21:11:34.639Z,0.70
2022-12-23T21:14:06.694Z,0.98
2022-12-23T21:16:37.390Z,0.52
2022-12-23T21:19:05.992Z,0.98
2022-12-23T21:21:33.744Z,1.25
2022-12-23T21:24:04.257Z,1.73
2022-12-23T21:26:33.973Z,0.90
2022-12-23T21:29:03.887Z,0.95
2022-12-23T21:31:33.333Z,0.80
2022-12-23T21:34:00.840Z,1.63
2022-12-23T21:36:31.174Z,1.00
2022-12-23T21:38:59.829Z,0.73
2022-12-23T21:41:29.797Z,0.63
2022-12-23T21:43:58.519Z,0.70
2022-12-23T21:46:27.639Z,0.73
2022-12-23T21:48:56.483Z,1.42
2022-12-23T21:51:27.108Z,0.70
2022-12-23T21:53:57.251Z,0.82
2022-12-23T21:56:30.018Z,1.58
2022-12-23T21:59:00.335Z,1.00
2022-12-23T22:01:29.124Z,1.02
2022-12-23T22:03:57.443Z,1.25
2022-12-23T22:06:37.108Z,0.98
2022-12-23T22:09:08.222Z,1.27
2022-12-23T22:11:37.058Z,1.10
2022-12-23T22:14:06.420Z,0.88
2022-12-23T22:16:35.085Z,1.10
2022-12-23T22:19:05.017Z,1.10
2022-12-23T22:21:33.364Z,0.85
2022-12-23T22:24:01.602Z,1.15
2022-12-23T22:26:32.319Z,1.25
2022-12-23T22:29:02.567Z,1.40
2022-12-23T22:31:36.045Z,1.27
2022-12-23T22:34:04.479Z,1.95
2022-12-23T22:36:32.231Z,1.40
2022-12-23T22:39:01.868Z,1.25
2022-12-23T22:41:31.331Z,1.73
2022-12-23T22:43:59.680Z,1.17
2022-12-23T22:46:28.120Z,1.23
2022-12-23T22:48:56.341Z,1.55
2022-12-23T22:51:29.025Z,1.98
2022-12-23T22:53:57.103Z,1.88
2022-12-23T22:56:25.609Z,1.70
2022-12-23T22:58:53.631Z,1.63
2022-12-23T23:01:22.741Z,2.05
2022-12-23T23:03:56.675Z,2.38
2022-12-23T23:06:37.442Z,1.63
2022-12-23T23:09:11.677Z,1.30
2022-12-23T23:11:39.260Z,1.70
2022-12-23T23:14:07.074Z,1.77
2022-12-23T23:16:34.580Z,2.13
2022-12-23T23:19:03.200Z,2.33
2022-12-23T23:21:30.729Z,1.50
2022-12-23T23:23:58.170Z,2.42
2022-12-23T23:26:27.229Z,1.58
2022-12-23T23:28:56.154Z,1.55
2022-12-23T23:34:12.445Z,1.95
2022-12-23T23:36:40.078Z,2.95
2022-12-23T23:39:08.188Z,1.42
2022-12-23T23:41:35.777Z,1.65
2022-12-23T23:44:03.412Z,1.40
2022-12-23T23:46:31.630Z,2.50
2022-12-23T23:48:59.357Z,2.00
2022-12-23T23:51:26.906Z,2.00
2022-12-23T23:53:54.562Z,1.83
2022-12-23T23:56:25.697Z,2.10
2022-12-23T23:58:54.226Z,1.95
